sensor_id;sensor_type;location;lat;lon;timestamp;pressure;altitude;pressure_sealevel;temperature;humidity
40946;BME280;55635;50.264;11.918;2024-02-21T00:02:27;96330.28;;;7.97;90.97
40946;BME280;55635;50.264;11.918;2024-02-21T00:05:08;96333.56;;;8.17;90.11
40946;BME280;55635;50.264;11.918;2024-02-21T00:07:48;96337.56;;;8.21;90.02
40946;BME280;55635;50.264;11.918;2024-02-21T00:10:29;96340.84;;;7.97;91.33
40946;BME280;55635;50.264;11.918;2024-02-21T00:13:12;96339.03;;;7.98;91.07
40946;BME280;55635;50.264;11.918;2024-02-21T00:15:54;96345.13;;;7.98;91.22
40946;BME280;55635;50.264;11.918;2024-02-21T00:18:34;96335.63;;;8.05;90.74
40946;BME280;55635;50.264;11.918;2024-02-21T00:21:15;96329.22;;;7.90;91.70
40946;BME280;55635;50.264;11.918;2024-02-21T00:23:58;96331.41;;;7.95;91.44
40946;BME280;55635;50.264;11.918;2024-02-21T00:26:39;96332.91;;;7.97;91.76
40946;BME280;55635;50.264;11.918;2024-02-21T00:29:20;96326.50;;;7.82;92.54
40946;BME280;55635;50.264;11.918;2024-02-21T00:32:02;96337.59;;;7.86;92.84
40946;BME280;55635;50.264;11.918;2024-02-21T00:34:43;96324.59;;;7.75;93.49
40946;BME280;55635;50.264;11.918;2024-02-21T00:37:25;96330.56;;;7.94;92.54
40946;BME280;55635;50.264;11.918;2024-02-21T00:40:06;96319.41;;;7.83;92.90
40946;BME280;55635;50.264;11.918;2024-02-21T00:42:48;96319.63;;;8.07;91.55
40946;BME280;55635;50.264;11.918;2024-02-21T00:45:29;96310.66;;;8.00;92.11
40946;BME280;55635;50.264;11.918;2024-02-21T00:48:09;96298.66;;;8.05;92.16
40946;BME280;55635;50.264;11.918;2024-02-21T00:50:51;96300.28;;;8.24;90.58
40946;BME280;55635;50.264;11.918;2024-02-21T00:53:32;96301.38;;;8.31;89.81
40946;BME280;55635;50.264;11.918;2024-02-21T00:56:14;96292.19;;;8.26;89.77
40946;BME280;55635;50.264;11.918;2024-02-21T00:58:55;96285.56;;;8.21;90.39
40946;BME280;55635;50.264;11.918;2024-02-21T01:01:36;96297.09;;;8.38;89.94
40946;BME280;55635;50.264;11.918;2024-02-21T01:04:17;96284.69;;;8.31;90.31
40946;BME280;55635;50.264;11.918;2024-02-21T01:06:58;96277.88;;;8.10;91.24
40946;BME280;55635;50.264;11.918;2024-02-21T01:09:39;96286.31;;;8.14;90.89
40946;BME280;55635;50.264;11.918;2024-02-21T01:12:20;96276.81;;;8.21;90.76
40946;BME280;55635;50.264;11.918;2024-02-21T01:15:00;96285.91;;;7.83;92.55
40946;BME280;55635;50.264;11.918;2024-02-21T01:17:41;96273.63;;;7.74;93.68
40946;BME280;55635;50.264;11.918;2024-02-21T01:20:22;96274.69;;;7.81;93.30
40946;BME280;55635;50.264;11.918;2024-02-21T01:23:03;96266.81;;;7.89;93.06
40946;BME280;55635;50.264;11.918;2024-02-21T01:25:45;96272.25;;;7.88;93.48
40946;BME280;55635;50.264;11.918;2024-02-21T01:28:26;96268.94;;;7.68;94.39
40946;BME280;55635;50.264;11.918;2024-02-21T01:31:07;96280.50;;;7.67;95.04
40946;BME280;55635;50.264;11.918;2024-02-21T01:33:48;96278.06;;;7.91;93.78
40946;BME280;55635;50.264;11.918;2024-02-21T01:36:29;96279.34;;;7.87;94.02
40946;BME280;55635;50.264;11.918;2024-02-21T01:39:10;96261.03;;;7.68;94.32
40946;BME280;55635;50.264;11.918;2024-02-21T01:41:51;96267.03;;;7.96;93.77
40946;BME280;55635;50.264;11.918;2024-02-21T01:44:32;96251.75;;;7.82;94.21
40946;BME280;55635;50.264;11.918;2024-02-21T01:47:14;96255.59;;;7.87;93.85
40946;BME280;55635;50.264;11.918;2024-02-21T01:49:55;96239.38;;;7.64;94.59
40946;BME280;55635;50.264;11.918;2024-02-21T01:52:36;96234.06;;;7.56;95.83
40946;BME280;55635;50.264;11.918;2024-02-21T01:55:18;96236.84;;;7.55;96.02
40946;BME280;55635;50.264;11.918;2024-02-21T01:57:59;96240.13;;;7.75;95.63
40946;BME280;55635;50.264;11.918;2024-02-21T02:00:45;96217.25;;;7.57;95.36
40946;BME280;55635;50.264;11.918;2024-02-21T02:03:26;96243.03;;;7.63;96.04
40946;BME280;55635;50.264;11.918;2024-02-21T02:06:07;96232.00;;;7.68;95.00
40946;BME280;55635;50.264;11.918;2024-02-21T02:08:49;96230.22;;;7.51;96.55
40946;BME280;55635;50.264;11.918;2024-02-21T02:11:32;96235.19;;;7.54;96.09
40946;BME280;55635;50.264;11.918;2024-02-21T02:14:13;96209.97;;;7.77;94.97
40946;BME280;55635;50.264;11.918;2024-02-21T02:16:54;96200.09;;;7.79;94.04
40946;BME280;55635;50.264;11.918;2024-02-21T02:19:35;96219.78;;;8.10;93.09
40946;BME280;55635;50.264;11.918;2024-02-21T02:22:22;96218.44;;;8.06;93.12
40946;BME280;55635;50.264;11.918;2024-02-21T02:25:04;96216.34;;;7.92;93.21
40946;BME280;55635;50.264;11.918;2024-02-21T02:27:45;96221.66;;;8.18;92.53
40946;BME280;55635;50.264;11.918;2024-02-21T02:30:26;96232.75;;;8.21;92.26
40946;BME280;55635;50.264;11.918;2024-02-21T02:33:08;96232.44;;;8.50;90.67
40946;BME280;55635;50.264;11.918;2024-02-21T02:35:49;96225.97;;;8.45;90.85
40946;BME280;55635;50.264;11.918;2024-02-21T02:38:30;96200.53;;;8.18;91.23
40946;BME280;55635;50.264;11.918;2024-02-21T02:41:11;96198.50;;;8.12;91.79
40946;BME280;55635;50.264;11.918;2024-02-21T02:43:51;96190.72;;;8.10;91.75
40946;BME280;55635;50.264;11.918;2024-02-21T02:46:32;96192.66;;;8.00;92.10
40946;BME280;55635;50.264;11.918;2024-02-21T02:49:14;96170.50;;;7.93;92.75
40946;BME280;55635;50.264;11.918;2024-02-21T02:51:55;96179.38;;;7.92;92.49
40946;BME280;55635;50.264;11.918;2024-02-21T02:54:36;96175.16;;;7.99;92.97
40946;BME280;55635;50.264;11.918;2024-02-21T02:57:18;96162.47;;;8.03;92.25
40946;BME280;55635;50.264;11.918;2024-02-21T02:59:59;96162.38;;;7.61;93.59
40946;BME280;55635;50.264;11.918;2024-02-21T03:02:43;96147.84;;;7.83;92.60
40946;BME280;55635;50.264;11.918;2024-02-21T03:05:25;96145.97;;;8.01;92.51
40946;BME280;55635;50.264;11.918;2024-02-21T03:08:06;96135.94;;;7.79;93.42
40946;BME280;55635;50.264;11.918;2024-02-21T03:10:47;96143.06;;;7.86;92.91
40946;BME280;55635;50.264;11.918;2024-02-21T03:13:28;96161.22;;;7.89;92.71
40946;BME280;55635;50.264;11.918;2024-02-21T03:16:09;96163.31;;;8.03;92.10
40946;BME280;55635;50.264;11.918;2024-02-21T03:18:50;96139.56;;;8.11;91.27
40946;BME280;55635;50.264;11.918;2024-02-21T03:21:31;96165.56;;;8.24;90.86
40946;BME280;55635;50.264;11.918;2024-02-21T03:24:12;96161.69;;;8.10;91.17
40946;BME280;55635;50.264;11.918;2024-02-21T03:26:53;96156.97;;;8.22;90.96
40946;BME280;55635;50.264;11.918;2024-02-21T03:29:34;96166.16;;;7.84;92.18
40946;BME280;55635;50.264;11.918;2024-02-21T03:32:15;96176.84;;;8.08;91.79
40946;BME280;55635;50.264;11.918;2024-02-21T03:34:56;96189.63;;;8.13;92.03
40946;BME280;55635;50.264;11.918;2024-02-21T03:37:37;96171.47;;;7.92;93.19
40946;BME280;55635;50.264;11.918;2024-02-21T03:40:17;96170.28;;;7.87;93.68
40946;BME280;55635;50.264;11.918;2024-02-21T03:42:58;96142.94;;;7.44;95.09
40946;BME280;55635;50.264;11.918;2024-02-21T03:45:39;96166.41;;;7.55;95.83
40946;BME280;55635;50.264;11.918;2024-02-21T03:48:20;96154.66;;;7.50;96.51
40946;BME280;55635;50.264;11.918;2024-02-21T03:51:01;96167.47;;;7.62;95.32
40946;BME280;55635;50.264;11.918;2024-02-21T03:53:42;96156.47;;;7.93;94.14
40946;BME280;55635;50.264;11.918;2024-02-21T03:56:23;96162.69;;;8.09;92.74
40946;BME280;55635;50.264;11.918;2024-02-21T03:59:04;96168.63;;;8.11;93.09
40946;BME280;55635;50.264;11.918;2024-02-21T04:01:45;96161.94;;;7.99;93.25
40946;BME280;55635;50.264;11.918;2024-02-21T04:04:26;96172.44;;;8.17;92.90
40946;BME280;55635;50.264;11.918;2024-02-21T04:07:07;96159.09;;;8.18;92.78
40946;BME280;55635;50.264;11.918;2024-02-21T04:09:49;96160.50;;;7.79;94.67
40946;BME280;55635;50.264;11.918;2024-02-21T04:12:30;96184.03;;;7.98;94.11
40946;BME280;55635;50.264;11.918;2024-02-21T04:15:11;96175.81;;;7.76;94.54
40946;BME280;55635;50.264;11.918;2024-02-21T04:17:52;96174.94;;;7.93;95.03
40946;BME280;55635;50.264;11.918;2024-02-21T04:20:34;96163.38;;;7.86;94.92
40946;BME280;55635;50.264;11.918;2024-02-21T04:23:16;96165.25;;;7.32;97.58
40946;BME280;55635;50.264;11.918;2024-02-21T04:25:57;96164.06;;;7.70;96.59
40946;BME280;55635;50.264;11.918;2024-02-21T04:28:37;96161.91;;;7.91;95.51
40946;BME280;55635;50.264;11.918;2024-02-21T04:31:19;96151.06;;;7.51;96.37
40946;BME280;55635;50.264;11.918;2024-02-21T04:34:00;96161.56;;;7.43;98.07
40946;BME280;55635;50.264;11.918;2024-02-21T04:36:41;96155.13;;;7.63;96.90
40946;BME280;55635;50.264;11.918;2024-02-21T04:39:22;96161.13;;;7.73;96.21
40946;BME280;55635;50.264;11.918;2024-02-21T04:42:03;96142.97;;;7.52;97.48
40946;BME280;55635;50.264;11.918;2024-02-21T04:44:44;96155.38;;;7.78;96.17
40946;BME280;55635;50.264;11.918;2024-02-21T04:47:25;96150.25;;;7.76;96.16
40946;BME280;55635;50.264;11.918;2024-02-21T04:50:07;96141.59;;;7.66;96.23
40946;BME280;55635;50.264;11.918;2024-02-21T04:52:48;96149.56;;;7.74;96.27
40946;BME280;55635;50.264;11.918;2024-02-21T04:55:29;96127.13;;;7.70;95.88
40946;BME280;55635;50.264;11.918;2024-02-21T04:58:10;96143.19;;;8.10;94.74
40946;BME280;55635;50.264;11.918;2024-02-21T05:00:51;96140.06;;;7.81;95.58
40946;BME280;55635;50.264;11.918;2024-02-21T05:03:32;96142.22;;;8.11;93.95
40946;BME280;55635;50.264;11.918;2024-02-21T05:06:13;96145.47;;;8.05;94.37
40946;BME280;55635;50.264;11.918;2024-02-21T05:08:54;96140.19;;;8.05;94.31
40946;BME280;55635;50.264;11.918;2024-02-21T05:11:36;96144.94;;;7.94;94.96
40946;BME280;55635;50.264;11.918;2024-02-21T05:14:18;96139.56;;;8.11;94.09
40946;BME280;55635;50.264;11.918;2024-02-21T05:16:59;96141.88;;;8.06;94.37
40946;BME280;55635;50.264;11.918;2024-02-21T05:19:40;96146.53;;;8.12;94.10
40946;BME280;55635;50.264;11.918;2024-02-21T05:22:21;96136.72;;;8.05;94.55
40946;BME280;55635;50.264;11.918;2024-02-21T05:25:02;96136.91;;;8.03;94.87
40946;BME280;55635;50.264;11.918;2024-02-21T05:27:43;96135.53;;;8.25;93.54
40946;BME280;55635;50.264;11.918;2024-02-21T05:30:24;96125.47;;;7.95;94.88
40946;BME280;55635;50.264;11.918;2024-02-21T05:33:06;96120.13;;;8.12;94.43
40946;BME280;55635;50.264;11.918;2024-02-21T05:35:47;96118.94;;;8.07;94.69
40946;BME280;55635;50.264;11.918;2024-02-21T05:38:29;96102.69;;;7.68;96.84
40946;BME280;55635;50.264;11.918;2024-02-21T05:41:10;96108.22;;;7.57;97.37
40946;BME280;55635;50.264;11.918;2024-02-21T05:43:51;96103.16;;;7.63;97.03
40946;BME280;55635;50.264;11.918;2024-02-21T05:46:32;96118.44;;;7.78;96.94
40946;BME280;55635;50.264;11.918;2024-02-21T05:49:13;96107.34;;;8.00;96.13
40946;BME280;55635;50.264;11.918;2024-02-21T05:51:55;96110.13;;;7.98;95.51
40946;BME280;55635;50.264;11.918;2024-02-21T05:54:38;96106.59;;;8.15;94.82
40946;BME280;55635;50.264;11.918;2024-02-21T05:57:22;96103.59;;;8.10;95.07
40946;BME280;55635;50.264;11.918;2024-02-21T06:00:05;96073.88;;;8.08;94.63
40946;BME280;55635;50.264;11.918;2024-02-21T06:02:53;96091.66;;;8.32;94.18
40946;BME280;55635;50.264;11.918;2024-02-21T06:05:37;96084.53;;;7.91;95.72
40946;BME280;55635;50.264;11.918;2024-02-21T06:08:19;96091.06;;;8.12;94.46
40946;BME280;55635;50.264;11.918;2024-02-21T06:11:01;96090.84;;;7.98;94.34
40946;BME280;55635;50.264;11.918;2024-02-21T06:13:42;96083.34;;;7.85;94.93
40946;BME280;55635;50.264;11.918;2024-02-21T06:16:23;96074.50;;;8.02;93.79
40946;BME280;55635;50.264;11.918;2024-02-21T06:19:03;96062.34;;;7.76;94.98
40946;BME280;55635;50.264;11.918;2024-02-21T06:21:44;96062.66;;;7.73;95.06
40946;BME280;55635;50.264;11.918;2024-02-21T06:24:26;96069.75;;;7.80;94.77
40946;BME280;55635;50.264;11.918;2024-02-21T06:27:06;96065.09;;;7.66;95.72
40946;BME280;55635;50.264;11.918;2024-02-21T06:29:47;96066.06;;;7.65;95.74
40946;BME280;55635;50.264;11.918;2024-02-21T06:32:28;96067.00;;;7.56;95.76
40946;BME280;55635;50.264;11.918;2024-02-21T06:35:09;96051.19;;;7.30;96.74
40946;BME280;55635;50.264;11.918;2024-02-21T06:37:51;96063.75;;;7.19;96.84
40946;BME280;55635;50.264;11.918;2024-02-21T06:40:33;96061.31;;;7.43;96.22
40946;BME280;55635;50.264;11.918;2024-02-21T06:43:20;96065.84;;;7.33;97.03
40946;BME280;55635;50.264;11.918;2024-02-21T06:46:01;96057.06;;;7.24;97.24
40946;BME280;55635;50.264;11.918;2024-02-21T06:48:42;96051.47;;;7.27;96.89
40946;BME280;55635;50.264;11.918;2024-02-21T06:51:24;96059.22;;;7.29;96.34
40946;BME280;55635;50.264;11.918;2024-02-21T06:54:05;96055.31;;;7.33;96.86
40946;BME280;55635;50.264;11.918;2024-02-21T06:56:46;96052.63;;;7.25;96.03
40946;BME280;55635;50.264;11.918;2024-02-21T06:59:27;96047.63;;;7.22;96.41
40946;BME280;55635;50.264;11.918;2024-02-21T07:02:08;96057.47;;;7.11;97.14
40946;BME280;55635;50.264;11.918;2024-02-21T07:04:49;96072.78;;;7.34;96.45
40946;BME280;55635;50.264;11.918;2024-02-21T07:07:31;96068.63;;;7.31;97.45
40946;BME280;55635;50.264;11.918;2024-02-21T07:10:12;96062.66;;;7.21;97.96
40946;BME280;55635;50.264;11.918;2024-02-21T07:12:53;96073.41;;;7.28;97.50
40946;BME280;55635;50.264;11.918;2024-02-21T07:15:34;96066.28;;;7.46;96.07
40946;BME280;55635;50.264;11.918;2024-02-21T07:18:15;96066.59;;;7.43;95.11
40946;BME280;55635;50.264;11.918;2024-02-21T07:20:56;96066.47;;;7.78;93.77
40946;BME280;55635;50.264;11.918;2024-02-21T07:23:41;96068.34;;;7.86;93.64
40946;BME280;55635;50.264;11.918;2024-02-21T07:26:23;96068.56;;;7.66;94.84
40946;BME280;55635;50.264;11.918;2024-02-21T07:29:04;96068.06;;;7.97;92.68
40946;BME280;55635;50.264;11.918;2024-02-21T07:31:45;96061.53;;;7.83;92.69
40946;BME280;55635;50.264;11.918;2024-02-21T07:34:29;96060.84;;;8.07;91.82
40946;BME280;55635;50.264;11.918;2024-02-21T07:37:10;96062.09;;;7.95;92.34
40946;BME280;55635;50.264;11.918;2024-02-21T07:39:51;96042.28;;;8.33;90.23
40946;BME280;55635;50.264;11.918;2024-02-21T07:42:32;96040.75;;;9.04;87.99
40946;BME280;55635;50.264;11.918;2024-02-21T07:45:12;96039.94;;;9.04;86.89
40946;BME280;55635;50.264;11.918;2024-02-21T07:47:53;96038.59;;;8.75;88.61
40946;BME280;55635;50.264;11.918;2024-02-21T07:50:34;96032.16;;;8.70;88.75
40946;BME280;55635;50.264;11.918;2024-02-21T07:53:15;96038.13;;;9.04;87.53
40946;BME280;55635;50.264;11.918;2024-02-21T07:55:56;96026.22;;;8.92;86.59
40946;BME280;55635;50.264;11.918;2024-02-21T07:58:37;96021.56;;;8.78;86.95
40946;BME280;55635;50.264;11.918;2024-02-21T08:01:19;96028.81;;;8.60;88.81
40946;BME280;55635;50.264;11.918;2024-02-21T08:04:01;96024.81;;;8.40;89.09
40946;BME280;55635;50.264;11.918;2024-02-21T08:06:43;96010.34;;;8.68;87.74
40946;BME280;55635;50.264;11.918;2024-02-21T08:09:26;96027.88;;;9.25;85.53
40946;BME280;55635;50.264;11.918;2024-02-21T08:12:07;96005.06;;;8.92;86.18
40946;BME280;55635;50.264;11.918;2024-02-21T08:14:48;96023.06;;;8.14;89.80
40946;BME280;55635;50.264;11.918;2024-02-21T08:17:28;95998.13;;;8.17;90.09
40946;BME280;55635;50.264;11.918;2024-02-21T08:20:10;95999.47;;;8.21;90.08
40946;BME280;55635;50.264;11.918;2024-02-21T08:22:51;96012.31;;;8.50;89.78
40946;BME280;55635;50.264;11.918;2024-02-21T08:25:33;96022.03;;;8.49;90.53
40946;BME280;55635;50.264;11.918;2024-02-21T08:28:14;96016.97;;;8.80;88.57
40946;BME280;55635;50.264;11.918;2024-02-21T08:30:55;96007.88;;;8.83;88.17
40946;BME280;55635;50.264;11.918;2024-02-21T08:33:36;96004.25;;;8.09;90.32
40946;BME280;55635;50.264;11.918;2024-02-21T08:36:18;96016.13;;;8.13;90.67
40946;BME280;55635;50.264;11.918;2024-02-21T08:39:03;96007.69;;;8.76;89.24
40946;BME280;55635;50.264;11.918;2024-02-21T08:41:45;95992.31;;;8.55;89.29
40946;BME280;55635;50.264;11.918;2024-02-21T08:44:28;96008.16;;;8.71;90.58
40946;BME280;55635;50.264;11.918;2024-02-21T08:47:09;96002.56;;;8.91;89.26
40946;BME280;55635;50.264;11.918;2024-02-21T08:49:50;96000.66;;;9.64;85.74
40946;BME280;55635;50.264;11.918;2024-02-21T08:52:31;95997.22;;;9.94;82.43
40946;BME280;55635;50.264;11.918;2024-02-21T08:55:12;96004.25;;;10.26;81.93
40946;BME280;55635;50.264;11.918;2024-02-21T08:57:53;95999.38;;;9.44;83.95
40946;BME280;55635;50.264;11.918;2024-02-21T09:00:34;95989.47;;;9.38;84.87
40946;BME280;55635;50.264;11.918;2024-02-21T09:03:15;95964.56;;;8.92;85.81
40946;BME280;55635;50.264;11.918;2024-02-21T09:05:59;95971.00;;;9.13;83.91
40946;BME280;55635;50.264;11.918;2024-02-21T09:08:40;95952.16;;;8.60;85.17
40946;BME280;55635;50.264;11.918;2024-02-21T09:11:21;95997.78;;;9.10;84.39
40946;BME280;55635;50.264;11.918;2024-02-21T09:14:02;95994.28;;;9.34;83.76
40946;BME280;55635;50.264;11.918;2024-02-21T09:16:44;95992.13;;;9.93;80.90
40946;BME280;55635;50.264;11.918;2024-02-21T09:19:25;96001.03;;;9.37;81.87
40946;BME280;55635;50.264;11.918;2024-02-21T09:22:06;95992.50;;;8.62;85.99
40946;BME280;55635;50.264;11.918;2024-02-21T09:24:47;95992.81;;;9.07;84.27
40946;BME280;55635;50.264;11.918;2024-02-21T09:27:28;95988.63;;;9.53;83.75
40946;BME280;55635;50.264;11.918;2024-02-21T09:30:10;96002.09;;;8.95;84.09
40946;BME280;55635;50.264;11.918;2024-02-21T09:32:51;95995.78;;;9.20;85.90
40946;BME280;55635;50.264;11.918;2024-02-21T09:35:33;95996.97;;;9.73;82.58
40946;BME280;55635;50.264;11.918;2024-02-21T09:38:14;95990.69;;;9.74;82.40
40946;BME280;55635;50.264;11.918;2024-02-21T09:41:15;95992.97;;;9.22;84.59
40946;BME280;55635;50.264;11.918;2024-02-21T09:43:59;95987.84;;;9.12;84.81
40946;BME280;55635;50.264;11.918;2024-02-21T09:46:48;95989.38;;;9.78;83.90
40946;BME280;55635;50.264;11.918;2024-02-21T09:49:34;95982.50;;;9.92;80.12
40946;BME280;55635;50.264;11.918;2024-02-21T09:52:19;95974.78;;;9.82;79.55
40946;BME280;55635;50.264;11.918;2024-02-21T09:55:02;95974.72;;;10.60;79.40
40946;BME280;55635;50.264;11.918;2024-02-21T09:57:45;95960.44;;;10.07;79.63
40946;BME280;55635;50.264;11.918;2024-02-21T10:00:26;95956.91;;;10.23;80.28
40946;BME280;55635;50.264;11.918;2024-02-21T10:03:08;95958.44;;;10.17;79.27
40946;BME280;55635;50.264;11.918;2024-02-21T10:05:49;95947.41;;;10.28;77.37
40946;BME280;55635;50.264;11.918;2024-02-21T10:08:31;95938.72;;;9.81;79.51
40946;BME280;55635;50.264;11.918;2024-02-21T10:11:23;95950.59;;;10.47;78.68
40946;BME280;55635;50.264;11.918;2024-02-21T10:14:05;95953.44;;;10.68;78.46
40946;BME280;55635;50.264;11.918;2024-02-21T10:16:48;95948.63;;;11.09;76.54
40946;BME280;55635;50.264;11.918;2024-02-21T10:19:30;95941.41;;;10.80;77.04
40946;BME280;55635;50.264;11.918;2024-02-21T10:22:11;95934.72;;;10.47;74.70
40946;BME280;55635;50.264;11.918;2024-02-21T10:24:52;95929.13;;;10.42;77.38
40946;BME280;55635;50.264;11.918;2024-02-21T10:27:37;95940.97;;;10.54;76.70
40946;BME280;55635;50.264;11.918;2024-02-21T10:30:18;95934.03;;;11.71;75.55
40946;BME280;55635;50.264;11.918;2024-02-21T10:32:59;95931.97;;;11.15;73.17
40946;BME280;55635;50.264;11.918;2024-02-21T10:35:40;95895.91;;;10.91;75.35
40946;BME280;55635;50.264;11.918;2024-02-21T10:38:21;95924.72;;;12.89;71.70
40946;BME280;55635;50.264;11.918;2024-02-21T10:41:04;95914.78;;;12.34;68.58
40946;BME280;55635;50.264;11.918;2024-02-21T10:43:53;95906.28;;;12.45;71.09
40946;BME280;55635;50.264;11.918;2024-02-21T10:46:36;95899.72;;;11.70;71.57
40946;BME280;55635;50.264;11.918;2024-02-21T10:49:24;95897.97;;;11.77;75.71
40946;BME280;55635;50.264;11.918;2024-02-21T10:52:22;95899.03;;;13.03;71.64
40946;BME280;55635;50.264;11.918;2024-02-21T10:55:20;95887.03;;;12.22;72.63
40946;BME280;55635;50.264;11.918;2024-02-21T10:58:02;95890.84;;;12.13;72.53
40946;BME280;55635;50.264;11.918;2024-02-21T11:00:44;95866.63;;;11.28;71.61
40946;BME280;55635;50.264;11.918;2024-02-21T11:03:25;95867.66;;;12.07;71.30
40946;BME280;55635;50.264;11.918;2024-02-21T11:06:06;95867.38;;;11.52;73.41
40946;BME280;55635;50.264;11.918;2024-02-21T11:09:09;95847.53;;;12.19;69.42
40946;BME280;55635;50.264;11.918;2024-02-21T11:11:50;95839.53;;;11.77;72.69
40946;BME280;55635;50.264;11.918;2024-02-21T11:14:32;95841.59;;;11.81;72.32
40946;BME280;55635;50.264;11.918;2024-02-21T11:17:19;95813.38;;;12.16;68.78
40946;BME280;55635;50.264;11.918;2024-02-21T11:20:13;95828.38;;;12.73;69.66
40946;BME280;55635;50.264;11.918;2024-02-21T11:22:54;95816.66;;;12.67;67.68
40946;BME280;55635;50.264;11.918;2024-02-21T11:25:35;95828.81;;;11.70;69.79
40946;BME280;55635;50.264;11.918;2024-02-21T11:28:25;95829.53;;;11.64;72.22
40946;BME280;55635;50.264;11.918;2024-02-21T11:31:14;95834.34;;;11.25;73.95
40946;BME280;55635;50.264;11.918;2024-02-21T11:33:55;95816.97;;;12.30;71.42
40946;BME280;55635;50.264;11.918;2024-02-21T11:36:52;95819.91;;;12.14;71.63
40946;BME280;55635;50.264;11.918;2024-02-21T11:39:33;95819.69;;;11.94;68.67
40946;BME280;55635;50.264;11.918;2024-02-21T11:42:15;95808.59;;;12.12;71.55
40946;BME280;55635;50.264;11.918;2024-02-21T11:44:57;95803.13;;;12.62;69.75
40946;BME280;55635;50.264;11.918;2024-02-21T11:47:38;95791.84;;;13.16;68.18
40946;BME280;55635;50.264;11.918;2024-02-21T11:50:19;95790.28;;;13.00;67.68
40946;BME280;55635;50.264;11.918;2024-02-21T11:53:00;95786.34;;;12.62;69.56
40946;BME280;55635;50.264;11.918;2024-02-21T11:55:41;95752.34;;;13.19;68.07
40946;BME280;55635;50.264;11.918;2024-02-21T11:58:22;95778.38;;;12.62;66.17
40946;BME280;55635;50.264;11.918;2024-02-21T12:01:03;95765.38;;;13.48;65.88
40946;BME280;55635;50.264;11.918;2024-02-21T12:03:45;95735.78;;;13.24;65.12
40946;BME280;55635;50.264;11.918;2024-02-21T12:06:32;95737.97;;;12.24;68.63
40946;BME280;55635;50.264;11.918;2024-02-21T12:09:16;95759.72;;;11.85;71.37
40946;BME280;55635;50.264;11.918;2024-02-21T12:12:03;95748.47;;;12.32;69.88
40946;BME280;55635;50.264;11.918;2024-02-21T12:14:54;95743.28;;;12.24;71.01
40946;BME280;55635;50.264;11.918;2024-02-21T12:17:37;95734.94;;;12.27;69.08
40946;BME280;55635;50.264;11.918;2024-02-21T12:20:17;95717.13;;;13.24;67.46
40946;BME280;55635;50.264;11.918;2024-02-21T12:23:01;95724.34;;;13.30;66.01
40946;BME280;55635;50.264;11.918;2024-02-21T12:25:42;95720.19;;;14.14;65.73
40946;BME280;55635;50.264;11.918;2024-02-21T12:28:23;95732.75;;;12.09;68.40
40946;BME280;55635;50.264;11.918;2024-02-21T12:31:04;95725.72;;;12.57;68.13
40946;BME280;55635;50.264;11.918;2024-02-21T12:33:45;95719.91;;;12.40;66.63
40946;BME280;55635;50.264;11.918;2024-02-21T12:36:26;95730.22;;;12.01;69.79
40946;BME280;55635;50.264;11.918;2024-02-21T12:39:07;95714.88;;;12.24;68.25
40946;BME280;55635;50.264;11.918;2024-02-21T12:41:49;95695.94;;;13.02;65.20
40946;BME280;55635;50.264;11.918;2024-02-21T12:44:30;95672.38;;;13.80;63.68
40946;BME280;55635;50.264;11.918;2024-02-21T12:47:11;95675.88;;;13.80;65.66
40946;BME280;55635;50.264;11.918;2024-02-21T12:49:53;95666.81;;;13.48;64.54
40946;BME280;55635;50.264;11.918;2024-02-21T12:52:33;95650.47;;;14.37;61.02
40946;BME280;55635;50.264;11.918;2024-02-21T12:55:15;95660.09;;;14.44;61.40
40946;BME280;55635;50.264;11.918;2024-02-21T12:57:57;95653.53;;;13.94;61.60
40946;BME280;55635;50.264;11.918;2024-02-21T13:00:43;95644.66;;;12.87;62.13
40946;BME280;55635;50.264;11.918;2024-02-21T13:03:25;95658.66;;;12.62;64.12
40946;BME280;55635;50.264;11.918;2024-02-21T13:06:06;95639.56;;;12.51;62.88
40946;BME280;55635;50.264;11.918;2024-02-21T13:08:53;95627.00;;;13.14;63.41
40946;BME280;55635;50.264;11.918;2024-02-21T13:11:34;95643.97;;;12.31;65.82
40946;BME280;55635;50.264;11.918;2024-02-21T13:14:15;95622.72;;;13.39;61.83
40946;BME280;55635;50.264;11.918;2024-02-21T13:16:56;95617.00;;;13.49;62.51
40946;BME280;55635;50.264;11.918;2024-02-21T13:19:37;95614.38;;;13.69;61.01
40946;BME280;55635;50.264;11.918;2024-02-21T13:22:18;95587.31;;;13.78;61.95
40946;BME280;55635;50.264;11.918;2024-02-21T13:25:04;95598.19;;;13.96;60.61
40946;BME280;55635;50.264;11.918;2024-02-21T13:27:45;95600.84;;;14.09;61.01
40946;BME280;55635;50.264;11.918;2024-02-21T13:30:26;95592.19;;;14.21;60.33
40946;BME280;55635;50.264;11.918;2024-02-21T13:33:08;95572.34;;;13.97;59.36
40946;BME280;55635;50.264;11.918;2024-02-21T13:35:50;95596.94;;;12.38;65.05
40946;BME280;55635;50.264;11.918;2024-02-21T13:38:31;95599.34;;;11.92;66.19
40946;BME280;55635;50.264;11.918;2024-02-21T13:41:12;95593.88;;;11.73;67.89
40946;BME280;55635;50.264;11.918;2024-02-21T13:43:53;95581.78;;;12.32;65.84
40946;BME280;55635;50.264;11.918;2024-02-21T13:46:34;95580.50;;;11.66;65.93
40946;BME280;55635;50.264;11.918;2024-02-21T13:49:15;95593.56;;;10.98;67.93
40946;BME280;55635;50.264;11.918;2024-02-21T13:51:56;95571.72;;;11.66;68.62
40946;BME280;55635;50.264;11.918;2024-02-21T13:54:38;95566.63;;;12.26;65.72
40946;BME280;55635;50.264;11.918;2024-02-21T13:57:19;95572.56;;;12.76;65.85
40946;BME280;55635;50.264;11.918;2024-02-21T14:00:00;95564.09;;;12.52;65.00
40946;BME280;55635;50.264;11.918;2024-02-21T14:02:41;95564.56;;;12.22;65.50
40946;BME280;55635;50.264;11.918;2024-02-21T14:05:21;95554.63;;;12.02;66.23
40946;BME280;55635;50.264;11.918;2024-02-21T14:08:03;95551.94;;;11.96;66.10
40946;BME280;55635;50.264;11.918;2024-02-21T14:10:44;95575.72;;;11.76;66.98
40946;BME280;55635;50.264;11.918;2024-02-21T14:13:25;95559.59;;;12.12;65.70
40946;BME280;55635;50.264;11.918;2024-02-21T14:16:10;95545.44;;;12.46;63.16